createdAt,value
2018-07-04T08:07:39.525Z,46.50
2018-07-04T08:09:26.941Z,47.80
2018-07-04T08:10:11.836Z,47.70
2018-07-04T08:10:57.546Z,48.30
2018-07-04T08:11:42.479Z,48.30
2018-07-04T08:12:28.107Z,47.80
2018-07-04T08:13:12.956Z,47.70
2018-07-04T08:13:57.908Z,48.20
2018-07-04T08:14:55.177Z,47.70
2018-07-04T08:15:40.845Z,47.70
2018-07-04T08:16:25.782Z,47.60
2018-07-04T08:17:10.959Z,48.00
2018-07-04T08:18:04.756Z,47.90
2018-07-04T08:18:49.771Z,47.30
2018-07-04T08:19:34.618Z,45.90
2018-07-04T08:20:19.501Z,46.70
2018-07-04T08:21:04.384Z,47.50
2018-07-04T08:21:49.352Z,45.80
2018-07-04T08:22:34.279Z,45.30
2018-07-04T08:23:19.144Z,47.20
2018-07-04T08:24:04.097Z,46.10
2018-07-04T08:24:49.008Z,46.10
2018-07-04T08:25:34.676Z,47.20
2018-07-04T08:26:20.412Z,46.70
2018-07-04T08:27:05.291Z,46.70
2018-07-04T08:27:51.020Z,46.40
2018-07-04T08:28:35.857Z,46.40
2018-07-04T08:29:20.767Z,45.10
2018-07-04T08:30:06.471Z,44.50
2018-07-04T08:30:51.363Z,44.40
2018-07-04T08:31:36.267Z,45.80
2018-07-04T08:32:21.196Z,44.40
2018-07-04T08:33:06.113Z,46.50
2018-07-04T08:33:51.032Z,44.60
2018-07-04T08:34:35.841Z,43.60
2018-07-04T08:35:20.764Z,44.60
2018-07-04T08:36:05.637Z,45.90
2018-07-04T08:36:44.189Z,45.80
2018-07-04T08:37:28.920Z,45.30
2018-07-04T08:38:14.539Z,46.40
2018-07-04T08:38:59.486Z,46.30
2018-07-04T08:39:44.425Z,45.70
2018-07-04T08:40:29.311Z,45.60
2018-07-04T08:41:14.208Z,46.60
2018-07-04T08:41:59.146Z,46.00
2018-07-04T08:42:44.092Z,45.70
2018-07-04T08:43:28.999Z,46.20
2018-07-04T08:44:13.822Z,45.80
2018-07-04T08:44:58.727Z,45.80
2018-07-04T08:45:43.662Z,43.80
2018-07-04T08:46:28.583Z,44.30
2018-07-04T08:47:13.504Z,46.50
2018-07-04T08:47:58.439Z,46.20
2018-07-04T08:48:43.409Z,45.50
2018-07-04T08:49:28.337Z,45.00
2018-07-04T08:50:13.321Z,45.90
2018-07-04T08:50:58.231Z,45.20
2018-07-04T08:51:43.140Z,46.20
2018-07-04T08:52:28.844Z,46.10
2018-07-04T08:53:13.707Z,46.10
2018-07-04T08:53:59.204Z,46.50
2018-07-04T08:54:44.628Z,45.00
2018-07-04T08:55:29.357Z,44.60
2018-07-04T08:56:14.349Z,45.20
2018-07-04T08:56:59.266Z,44.70
2018-07-04T08:57:44.872Z,44.60
2018-07-04T08:58:29.790Z,44.70
2018-07-04T08:59:14.712Z,44.20
2018-07-04T08:59:59.631Z,44.30
2018-07-04T09:00:44.596Z,44.30
2018-07-04T09:01:29.520Z,44.80
2018-07-04T09:02:14.471Z,44.70
2018-07-04T09:02:59.419Z,44.90
2018-07-04T09:03:44.136Z,45.00
2018-07-04T09:04:29.059Z,44.40
2018-07-04T09:05:13.971Z,44.90
2018-07-04T09:05:58.943Z,44.60
2018-07-04T09:06:43.950Z,44.20
2018-07-04T09:07:28.891Z,44.70
2018-07-04T09:08:13.885Z,44.20
2018-07-04T09:08:58.787Z,45.10
2018-07-04T09:09:43.635Z,44.80
2018-07-04T09:10:28.603Z,45.30
2018-07-04T09:11:13.499Z,45.30
2018-07-04T09:11:58.392Z,45.30
2018-07-04T09:12:43.314Z,45.20
2018-07-04T09:13:28.235Z,45.70
2018-07-04T09:14:13.870Z,45.00
2018-07-04T09:14:58.774Z,45.00
2018-07-04T09:15:44.499Z,44.80
2018-07-04T09:16:29.485Z,44.80
2018-07-04T09:17:14.421Z,44.70
2018-07-04T09:17:59.348Z,44.70
2018-07-04T09:18:44.287Z,45.30
2018-07-04T09:19:29.108Z,45.40
2018-07-04T09:20:14.795Z,45.60
2018-07-04T09:20:59.773Z,45.60
2018-07-04T09:21:44.688Z,45.70
2018-07-04T09:22:30.284Z,46.10
2018-07-04T09:23:15.079Z,46.00
2018-07-04T09:23:59.995Z,46.70
2018-07-04T09:24:44.908Z,46.10
2018-07-04T09:25:30.587Z,45.80
2018-07-04T09:26:16.205Z,44.80
2018-07-04T09:27:01.197Z,44.80
2018-07-04T09:27:46.881Z,45.80
2018-07-04T09:28:32.591Z,45.80
2018-07-04T09:29:17.512Z,45.70
2018-07-04T09:30:02.396Z,45.70
2018-07-04T09:30:47.314Z,45.80
2018-07-04T09:31:32.236Z,45.60
2018-07-04T09:32:21.154Z,45.80
2018-07-04T09:33:06.065Z,46.00
2018-07-04T09:33:51.700Z,46.70
2018-07-04T09:34:36.572Z,46.60
2018-07-04T09:35:21.492Z,46.60
2018-07-04T09:36:06.412Z,47.80
2018-07-04T09:36:51.372Z,47.10
2018-07-04T09:37:36.282Z,47.70
2018-07-04T09:38:21.223Z,46.90
2018-07-04T09:39:06.113Z,46.90
2018-07-04T09:39:50.924Z,47.10
2018-07-04T09:40:35.815Z,48.00
2018-07-04T09:41:20.645Z,47.70
2018-07-04T09:42:06.235Z,47.90
2018-07-04T09:42:51.156Z,47.90
2018-07-04T09:43:36.084Z,47.30
2018-07-04T09:44:21.223Z,47.60
2018-07-04T09:45:06.163Z,46.90
2018-07-04T09:45:51.060Z,46.90
2018-07-04T09:46:36.192Z,47.20
2018-07-04T09:47:21.115Z,47.60
2018-07-04T09:48:05.986Z,47.40
2018-07-04T09:48:50.933Z,47.50
2018-07-04T09:49:35.763Z,47.40
2018-07-04T09:50:20.682Z,48.00
2018-07-04T09:51:05.604Z,47.60
2018-07-04T09:51:50.567Z,48.40
2018-07-04T09:52:35.501Z,48.10
2018-07-04T09:53:20.352Z,47.90
2018-07-04T09:54:05.328Z,48.10
2018-07-04T09:54:50.292Z,48.30
2018-07-04T09:55:35.099Z,48.20
2018-07-04T09:56:20.001Z,48.10
2018-07-04T09:57:04.903Z,48.80
2018-07-04T09:57:49.820Z,49.10
2018-07-04T09:58:34.743Z,48.30
2018-07-04T09:59:19.689Z,48.60
2018-07-04T10:00:04.619Z,48.40
2018-07-04T10:00:49.544Z,48.40
2018-07-04T10:01:35.136Z,48.40
2018-07-04T10:02:20.044Z,48.40
2018-07-04T10:03:04.968Z,47.80
2018-07-04T10:03:49.848Z,48.00
2018-07-04T10:04:34.860Z,48.10
2018-07-04T10:05:19.792Z,48.20
2018-07-04T10:06:05.481Z,48.30
2018-07-04T10:06:50.396Z,48.30
2018-07-04T10:07:35.301Z,48.00
2018-07-04T10:08:20.236Z,48.00
2018-07-04T10:09:05.889Z,47.90
2018-07-04T10:09:51.618Z,47.80
2018-07-04T10:10:36.552Z,47.80
2018-07-04T10:11:21.456Z,48.00
2018-07-04T10:12:06.315Z,48.50
2018-07-04T10:12:51.468Z,48.10
2018-07-04T10:13:36.413Z,48.30
2018-07-04T10:14:21.364Z,48.30
2018-07-04T10:15:06.291Z,48.50
2018-07-04T10:15:51.480Z,48.50
2018-07-04T10:16:36.583Z,48.00
2018-07-04T10:17:21.592Z,48.10
2018-07-04T10:18:06.406Z,48.40
2018-07-04T10:18:51.311Z,48.50
2018-07-04T10:19:36.205Z,48.60
2018-07-04T10:20:21.134Z,48.70
2018-07-04T10:21:06.001Z,48.60
2018-07-04T10:21:50.948Z,48.60
2018-07-04T10:22:35.886Z,48.80
2018-07-04T10:23:23.112Z,48.70
2018-07-04T10:24:08.103Z,49.30
2018-07-04T10:24:52.888Z,48.80
2018-07-04T10:25:38.543Z,49.00
2018-07-04T10:26:23.501Z,48.90
2018-07-04T10:27:08.484Z,49.00
2018-07-04T10:27:54.200Z,49.30
2018-07-04T10:28:39.129Z,49.20
2018-07-04T10:29:24.052Z,49.50
2018-07-04T10:30:09.676Z,49.50
2018-07-04T10:30:54.605Z,49.50
2018-07-04T10:32:35.694Z,49.60
2018-07-04T10:33:20.678Z,49.70
2018-07-04T10:34:06.155Z,49.60
2018-07-04T10:34:58.898Z,49.80
2018-07-04T10:35:44.350Z,50.00
2018-07-04T10:36:29.084Z,50.50
2018-07-04T10:37:14.021Z,50.20
2018-07-04T10:37:59.057Z,50.20
2018-07-04T10:38:43.997Z,50.20
2018-07-04T10:39:28.714Z,50.20
2018-07-04T10:40:13.633Z,50.20
2018-07-04T10:40:58.502Z,50.10
2018-07-04T10:41:43.316Z,50.30
2018-07-04T10:42:28.242Z,50.30
2018-07-04T10:43:13.856Z,50.30
2018-07-04T10:43:58.779Z,50.30
2018-07-04T10:44:43.686Z,50.00
2018-07-04T10:45:28.618Z,50.20
2018-07-04T10:46:13.556Z,50.20
2018-07-04T10:47:47.497Z,50.40
2018-07-04T10:48:32.431Z,50.60
2018-07-04T10:49:17.349Z,50.70
2018-07-04T10:50:02.295Z,51.20
2018-07-04T10:50:47.232Z,50.30
2018-07-04T10:51:32.200Z,50.50
2018-07-04T10:52:17.881Z,50.40
2018-07-04T10:53:02.816Z,50.40
2018-07-04T10:53:48.415Z,51.00
2018-07-04T10:54:33.415Z,50.40
2018-07-04T10:55:18.326Z,50.80
2018-07-04T10:56:03.275Z,49.90
2018-07-04T10:56:48.233Z,50.70
2018-07-04T10:57:33.122Z,51.70
2018-07-04T10:58:18.048Z,50.60
2018-07-04T10:59:02.981Z,50.50
2018-07-04T10:59:47.892Z,49.90
2018-07-04T11:00:32.795Z,49.70
2018-07-04T11:01:17.718Z,49.70
2018-07-04T11:02:02.620Z,49.90
2018-07-04T11:02:47.552Z,49.80
2018-07-04T11:03:32.349Z,50.60
2018-07-04T11:04:17.275Z,50.30
2018-07-04T11:05:02.242Z,50.10
2018-07-04T11:05:47.079Z,50.30
2018-07-04T11:06:31.951Z,50.10
2018-07-04T11:07:16.895Z,50.20
2018-07-04T11:08:01.845Z,50.50
2018-07-04T11:08:46.654Z,50.20
2018-07-04T11:09:32.243Z,50.00
2018-07-04T11:10:17.172Z,50.00
2018-07-04T11:11:02.842Z,50.90
2018-07-04T11:11:48.438Z,50.40
2018-07-04T11:12:33.340Z,50.40
2018-07-04T11:13:18.284Z,50.70
2018-07-04T11:14:03.200Z,51.20
2018-07-04T11:14:48.172Z,50.30
2018-07-04T11:15:33.099Z,50.10
2018-07-04T11:16:18.047Z,50.30
2018-07-04T11:17:03.007Z,50.20
2018-07-04T11:17:47.881Z,51.40
2018-07-04T11:18:32.815Z,50.20
2018-07-04T11:19:17.772Z,50.30
2018-07-04T11:20:02.699Z,50.30
2018-07-04T11:20:48.389Z,50.40
2018-07-04T11:21:33.300Z,50.40
2018-07-04T11:22:18.133Z,50.10
2018-07-04T11:23:03.071Z,49.40
2018-07-04T11:23:48.055Z,49.50
2018-07-04T11:24:32.985Z,49.80
2018-07-04T11:25:17.896Z,49.70
2018-07-04T11:26:02.809Z,50.30
2018-07-04T11:26:47.744Z,50.10
2018-07-04T11:27:32.624Z,49.80
2018-07-04T11:28:17.542Z,48.60
2018-07-04T11:29:02.488Z,49.10
2018-07-04T11:29:47.384Z,49.20
2018-07-04T11:30:32.321Z,49.30
2018-07-04T11:31:17.165Z,50.10
2018-07-04T11:32:02.072Z,49.00
2018-07-04T11:32:47.000Z,49.30
2018-07-04T11:33:32.686Z,48.50
2018-07-04T11:34:17.507Z,48.50
2018-07-04T11:35:02.439Z,48.60
2018-07-04T11:35:47.354Z,49.20
2018-07-04T11:36:32.473Z,49.00
2018-07-04T11:37:17.385Z,49.30
2018-07-04T11:38:02.317Z,49.20
2018-07-04T11:38:47.262Z,47.40
2018-07-04T11:39:32.945Z,47.90
2018-07-04T11:40:17.891Z,48.00
2018-07-04T11:41:02.830Z,47.00
2018-07-04T11:41:47.757Z,48.00
2018-07-04T11:42:32.577Z,47.70
2018-07-04T11:43:17.384Z,47.30
2018-07-04T11:44:02.316Z,46.30
2018-07-04T11:44:47.117Z,47.40
2018-07-04T11:45:32.048Z,47.60
2018-07-04T11:46:05.363Z,47.30
2018-07-04T11:46:37.930Z,47.30
2018-07-04T11:47:11.208Z,47.10
2018-07-04T11:47:43.759Z,47.10
2018-07-04T11:48:16.302Z,47.40
2018-07-04T11:48:49.614Z,47.40
2018-07-04T11:49:22.147Z,47.40
2018-07-04T11:49:55.471Z,47.10
2018-07-04T11:50:28.034Z,47.10
2018-07-04T11:51:00.600Z,47.30
2018-07-04T11:51:33.151Z,47.50
2018-07-04T11:52:05.708Z,47.60
2018-07-04T11:52:38.255Z,47.60
2018-07-04T11:53:10.804Z,47.70
2018-07-04T11:53:44.125Z,47.90
2018-07-04T11:54:16.669Z,47.90
2018-07-04T11:54:49.219Z,47.90
2018-07-04T11:55:22.528Z,48.10
2018-07-04T11:55:55.094Z,48.00
2018-07-04T11:56:27.704Z,48.60
2018-07-04T11:57:00.242Z,49.10
2018-07-04T11:57:32.748Z,48.70
2018-07-04T11:58:06.087Z,48.10
2018-07-04T11:58:38.609Z,48.10
2018-07-04T11:59:11.148Z,48.10
2018-07-04T11:59:44.448Z,48.20
2018-07-04T12:00:17.012Z,48.10
2018-07-04T12:00:49.556Z,47.80
2018-07-04T12:01:22.108Z,47.90
2018-07-04T12:01:54.651Z,48.00
2018-07-04T12:02:27.188Z,48.00
2018-07-04T12:02:59.748Z,47.90
2018-07-04T12:03:32.300Z,47.70
2018-07-04T12:04:17.203Z,47.60
2018-07-04T12:05:02.173Z,47.90
2018-07-04T12:05:47.933Z,48.10
2018-07-04T12:06:32.834Z,48.10
2018-07-04T12:07:05.388Z,48.20
2018-07-04T12:07:37.949Z,48.20
2018-07-04T12:08:10.500Z,48.30
2018-07-04T12:08:43.814Z,48.60
2018-07-04T12:09:16.369Z,48.60
2018-07-04T12:09:48.912Z,48.70
2018-07-04T12:10:21.457Z,48.40
2018-07-04T12:10:54.852Z,48.30
2018-07-04T12:11:27.365Z,48.30
2018-07-04T12:11:59.933Z,48.20
2018-07-04T12:12:32.487Z,48.60
2018-07-04T12:13:05.051Z,48.00
2018-07-04T12:13:37.609Z,47.90
2018-07-04T12:14:10.160Z,47.60
2018-07-04T12:14:42.703Z,47.80
2018-07-04T12:15:15.265Z,47.30
2018-07-04T12:15:48.593Z,46.70
2018-07-04T12:16:21.135Z,46.70
2018-07-04T12:16:53.903Z,47.60
2018-07-04T12:17:26.456Z,47.40
2018-07-04T12:17:59.012Z,47.10
2018-07-04T12:18:31.543Z,46.50
2018-07-04T12:19:04.113Z,46.30
2018-07-04T12:19:36.652Z,47.10
2018-07-04T12:20:09.204Z,46.50
2018-07-04T12:20:41.763Z,45.80
2018-07-04T12:21:14.349Z,44.70
2018-07-04T12:21:46.896Z,45.30
2018-07-04T12:22:19.440Z,45.00
2018-07-04T12:22:51.986Z,44.80
2018-07-04T12:23:24.515Z,45.70
2018-07-04T12:23:57.829Z,45.20
2018-07-04T12:24:30.393Z,45.10
2018-07-04T12:25:02.940Z,46.40
2018-07-04T12:25:36.271Z,44.80
2018-07-04T12:26:08.827Z,44.70
2018-07-04T12:26:41.425Z,45.60
2018-07-04T12:27:13.897Z,46.00
2018-07-04T12:27:46.469Z,45.00
2018-07-04T12:28:18.997Z,45.00
2018-07-04T12:28:51.532Z,43.70
2018-07-04T12:29:24.761Z,43.80
2018-07-04T12:29:57.304Z,44.70
2018-07-04T12:30:29.846Z,44.80
2018-07-04T12:31:02.411Z,44.90
2018-07-04T12:31:34.947Z,45.00
2018-07-04T12:32:07.529Z,44.70
2018-07-04T12:32:40.041Z,44.50
2018-07-04T12:33:12.579Z,44.60
2018-07-04T12:33:45.141Z,44.90
2018-07-04T12:34:17.698Z,43.00
2018-07-04T12:34:50.256Z,44.70
2018-07-04T12:35:22.806Z,43.80
2018-07-04T12:35:55.356Z,44.40
2018-07-04T12:36:27.921Z,44.40
2018-07-04T12:37:00.465Z,44.30
2018-07-04T12:37:33.834Z,44.30
2018-07-04T12:38:06.336Z,44.20
2018-07-04T12:38:38.916Z,44.00
2018-07-04T12:39:11.453Z,44.60
2018-07-04T12:39:43.992Z,44.90
2018-07-04T12:40:16.524Z,44.70
2018-07-04T12:40:49.069Z,45.00
2018-07-04T12:41:21.641Z,45.10
2018-07-04T12:41:54.202Z,44.70
2018-07-04T12:42:26.976Z,44.70
2018-07-04T12:42:59.504Z,45.00
2018-07-04T12:43:32.102Z,44.20
2018-07-04T12:44:04.608Z,44.70
2018-07-04T12:44:37.923Z,44.40
2018-07-04T12:45:10.456Z,44.40
2018-07-04T12:45:43.008Z,44.50
2018-07-04T12:46:16.358Z,45.20
2018-07-04T12:46:48.904Z,45.20
2018-07-04T12:47:21.530Z,45.10
2018-07-04T12:47:54.854Z,44.90
2018-07-04T12:48:27.416Z,45.00
2018-07-04T12:48:59.972Z,43.70
2018-07-04T12:49:32.509Z,44.90
2018-07-04T12:50:17.467Z,44.70
2018-07-04T12:50:49.971Z,44.90
2018-07-04T12:51:22.556Z,44.70
2018-07-04T12:51:55.087Z,45.60
2018-07-04T12:52:27.657Z,45.80
2018-07-04T12:53:00.188Z,45.70
2018-07-04T12:53:32.759Z,45.80
2018-07-04T12:54:05.391Z,45.60
2018-07-04T12:54:37.916Z,45.50
2018-07-04T12:55:22.793Z,45.70
2018-07-04T12:56:08.440Z,45.90
2018-07-04T12:56:53.426Z,45.80
2018-07-04T12:57:39.056Z,45.90
2018-07-04T12:58:24.006Z,45.90
2018-07-04T12:59:08.959Z,46.30
2018-07-04T12:59:53.905Z,46.60
2018-07-04T13:00:38.846Z,46.70
2018-07-04T13:01:23.788Z,46.70
2018-07-04T13:02:08.745Z,46.70
2018-07-04T13:02:53.681Z,46.90
2018-07-04T13:03:38.520Z,46.80
2018-07-04T13:04:24.145Z,46.90
2018-07-04T13:05:09.136Z,46.90
2018-07-04T13:05:54.805Z,47.00
2018-07-04T13:06:40.439Z,47.70
2018-07-04T13:07:25.367Z,47.10
2018-07-04T13:08:10.261Z,47.10
2018-07-04T13:08:55.420Z,46.80
2018-07-04T13:09:40.376Z,46.90
2018-07-04T13:10:25.223Z,46.90
2018-07-04T13:11:10.095Z,46.60
2018-07-04T13:11:55.039Z,46.50
2018-07-04T13:12:39.968Z,47.00
2018-07-04T13:13:24.879Z,47.10
2018-07-04T13:14:10.480Z,46.80
2018-07-04T13:14:55.398Z,46.80
2018-07-04T13:15:41.012Z,47.60
2018-07-04T13:16:25.943Z,47.50
2018-07-04T13:17:10.870Z,47.80
2018-07-04T13:17:55.723Z,47.90
2018-07-04T13:18:41.403Z,48.40
2018-07-04T13:19:26.463Z,48.40
2018-07-04T13:20:11.289Z,48.40
2018-07-04T13:20:56.262Z,48.50
2018-07-04T13:21:41.144Z,48.60
2018-07-04T13:22:26.059Z,49.00
2018-07-04T13:23:11.796Z,49.30
2018-07-04T13:23:56.713Z,49.20
2018-07-04T13:24:41.629Z,49.30
2018-07-04T13:25:26.507Z,49.70
2018-07-04T13:26:11.444Z,50.00
2018-07-04T13:26:56.332Z,50.10
2018-07-04T13:27:41.266Z,50.50
2018-07-04T13:28:26.308Z,50.90
2018-07-04T13:29:11.815Z,51.40
2018-07-04T13:29:56.808Z,51.40
2018-07-04T13:30:42.548Z,51.60
2018-07-04T13:31:27.468Z,52.10
2018-07-04T13:32:12.467Z,52.30
2018-07-04T13:32:58.805Z,52.70
2018-07-04T13:33:44.368Z,54.20
2018-07-04T13:34:30.086Z,54.10
2018-07-04T13:35:15.065Z,54.10
2018-07-04T13:35:59.869Z,54.20
2018-07-04T13:36:44.790Z,53.90
2018-07-04T13:37:30.485Z,54.30
2018-07-04T13:38:15.412Z,54.30
2018-07-04T13:39:01.061Z,54.60
2018-07-04T13:39:46.005Z,54.50
2018-07-04T13:40:30.960Z,54.70
2018-07-04T13:41:15.946Z,54.90
2018-07-04T13:42:00.786Z,55.40
2018-07-04T13:42:45.736Z,55.10
2018-07-04T13:43:30.548Z,55.40
2018-07-04T13:44:15.514Z,55.30
2018-07-04T13:45:00.290Z,55.40
2018-07-04T13:45:45.216Z,55.50
2018-07-04T13:46:30.389Z,55.20
2018-07-04T13:47:15.987Z,55.00
2018-07-04T13:48:00.819Z,54.80
2018-07-04T13:48:46.369Z,54.60
2018-07-04T13:51:18.870Z,54.50
2018-07-04T13:53:06.109Z,55.10
2018-07-04T13:53:52.859Z,55.60
2018-07-04T13:54:41.228Z,55.50
2018-07-04T13:55:26.034Z,55.60
2018-07-04T13:56:10.746Z,55.70
2018-07-04T13:56:55.733Z,56.00
2018-07-04T13:57:40.777Z,56.00
2018-07-04T13:58:25.699Z,56.20
2018-07-04T13:59:11.424Z,56.50
2018-07-04T13:59:56.380Z,56.40
2018-07-04T14:00:41.343Z,56.80
2018-07-04T14:01:26.212Z,56.90
2018-07-04T14:02:11.081Z,57.20
2018-07-04T14:02:56.708Z,57.90
2018-07-04T14:03:41.712Z,57.90
2018-07-04T14:04:26.560Z,58.30
2018-07-04T14:05:12.268Z,59.20
2018-07-04T14:05:57.272Z,59.20
2018-07-04T14:06:42.111Z,59.20
2018-07-04T14:07:27.088Z,59.40
2018-07-04T14:08:12.767Z,59.80
2018-07-04T14:08:58.448Z,60.20
2018-07-04T14:09:43.312Z,60.20
2018-07-04T14:10:28.177Z,60.40
2018-07-04T14:11:13.104Z,60.30
2018-07-04T14:11:58.053Z,60.60
2018-07-04T14:12:43.001Z,60.50
2018-07-04T14:13:28.678Z,61.00
2018-07-04T14:14:13.608Z,60.90
2018-07-04T14:14:58.526Z,60.80
2018-07-04T14:15:44.173Z,59.80
2018-07-04T14:16:29.040Z,59.80
2018-07-04T14:17:14.000Z,60.50
2018-07-04T14:17:58.845Z,60.80
2018-07-04T14:18:43.711Z,60.80
2018-07-04T14:19:29.306Z,60.60
2018-07-04T14:20:14.097Z,60.70
2018-07-04T14:20:59.070Z,60.60
2018-07-04T14:21:44.072Z,61.00
2018-07-04T14:22:29.028Z,60.90
2018-07-04T14:23:14.728Z,61.20
2018-07-04T14:23:59.529Z,61.10
2018-07-04T14:24:44.473Z,61.30
2018-07-04T14:25:29.409Z,61.30
2018-07-04T14:26:14.331Z,61.40
2018-07-04T14:26:59.318Z,61.30
2018-07-04T14:27:44.148Z,61.60
2018-07-04T14:28:28.948Z,61.70
2018-07-04T14:29:13.809Z,61.60
2018-07-04T14:29:58.615Z,61.70
2018-07-04T14:30:43.574Z,61.30
2018-07-04T14:31:28.536Z,61.60
2018-07-04T14:32:13.484Z,61.30
2018-07-04T14:32:58.448Z,61.60
2018-07-04T14:33:43.266Z,61.50
2018-07-04T14:34:28.192Z,61.70
2018-07-04T14:35:13.817Z,61.40
2018-07-04T14:35:58.719Z,61.40
2018-07-04T14:36:44.196Z,61.50
2018-07-04T14:37:29.888Z,61.10
2018-07-04T14:38:14.817Z,61.10
2018-07-04T14:39:00.533Z,61.30
2018-07-04T14:39:45.668Z,61.30
2018-07-04T14:40:30.409Z,61.20
2018-07-04T14:41:15.325Z,61.00
2018-07-04T14:42:00.233Z,60.90
2018-07-04T14:42:45.057Z,60.90
2018-07-04T14:43:30.646Z,61.00
2018-07-04T14:44:15.566Z,61.00
2018-07-04T14:45:01.249Z,60.80
2018-07-04T14:45:46.256Z,60.80
2018-07-04T14:46:31.168Z,60.90
2018-07-04T14:47:16.118Z,61.10
2018-07-04T14:48:01.237Z,61.70
2018-07-04T14:48:46.028Z,62.20
2018-07-04T14:49:30.979Z,62.50
2018-07-04T14:50:15.914Z,62.60
2018-07-04T14:52:17.381Z,63.90
2018-07-04T14:54:12.240Z,64.00
2018-07-04T14:54:58.716Z,64.20
2018-07-04T14:55:45.246Z,64.70
2018-07-04T14:56:30.891Z,64.80
2018-07-04T14:57:15.737Z,65.00
2018-07-04T14:58:01.927Z,65.10
2018-07-04T14:58:46.846Z,65.20
2018-07-04T14:59:31.720Z,65.50
2018-07-04T15:00:21.866Z,65.60
2018-07-04T15:01:07.950Z,66.30
2018-07-04T15:01:53.602Z,66.30
2018-07-04T15:02:40.173Z,67.10
2018-07-04T15:03:29.171Z,66.70
2018-07-04T15:04:19.816Z,66.40
2018-07-04T15:05:05.692Z,66.30
2018-07-04T15:05:54.250Z,66.40
2018-07-04T15:06:39.127Z,66.20
2018-07-04T15:07:30.098Z,66.50
2018-07-04T15:08:17.665Z,66.60
2018-07-04T15:09:18.356Z,66.50
2018-07-04T15:10:04.253Z,65.90
2018-07-04T15:10:49.154Z,66.00
2018-07-04T15:11:34.058Z,65.90
2018-07-04T15:12:18.988Z,66.00
2018-07-04T15:13:05.437Z,66.10
2018-07-04T15:13:54.218Z,65.50
2018-07-04T15:14:39.141Z,65.40
2018-07-04T15:15:24.171Z,65.20
2018-07-04T15:16:09.762Z,65.40
2018-07-04T15:16:54.757Z,65.30
2018-07-04T15:17:39.680Z,65.80
2018-07-04T15:18:24.676Z,65.00
2018-07-04T15:19:09.656Z,64.40
2018-07-04T15:19:56.481Z,65.20
2018-07-04T15:20:41.398Z,64.70
2018-07-04T15:21:26.446Z,64.60
2018-07-04T15:22:11.455Z,64.40
2018-07-04T15:22:58.670Z,64.30
2018-07-04T15:23:45.304Z,64.30
2018-07-04T15:24:32.656Z,64.60
2018-07-04T15:25:17.702Z,66.70
2018-07-04T15:26:03.466Z,66.20
2018-07-04T15:26:48.327Z,66.30
2018-07-04T15:27:34.051Z,66.40
2018-07-04T15:28:19.103Z,66.40
2018-07-04T15:29:04.102Z,65.90
2018-07-04T15:29:49.830Z,66.20
2018-07-04T15:30:34.709Z,66.20
2018-07-04T15:31:19.736Z,66.20
2018-07-04T15:32:04.697Z,66.20
2018-07-04T15:32:50.761Z,66.10
2018-07-04T15:33:35.689Z,66.10
2018-07-04T15:35:15.969Z,66.40
2018-07-04T15:36:01.577Z,66.30
2018-07-04T15:36:48.562Z,66.40
2018-07-04T15:37:33.536Z,66.30
2018-07-04T15:38:19.394Z,66.30
2018-07-04T15:39:04.800Z,66.30
2018-07-04T15:40:05.989Z,65.90
2018-07-04T15:40:52.847Z,65.90
2018-07-04T15:41:40.278Z,66.10
2018-07-04T15:42:29.803Z,65.90
2018-07-04T15:43:18.860Z,66.10
2018-07-04T15:44:08.498Z,65.90
2018-07-04T15:44:53.518Z,65.60
2018-07-04T15:45:38.444Z,65.70
2018-07-04T15:46:28.331Z,65.60
2018-07-04T15:47:13.188Z,65.50
2018-07-04T15:47:59.207Z,65.50
2018-07-04T15:48:44.257Z,65.50
2018-07-04T15:49:29.080Z,65.70
2018-07-04T15:50:13.902Z,65.60
2018-07-04T15:50:58.718Z,65.60
2018-07-04T15:51:44.684Z,65.50
2018-07-04T15:52:29.534Z,65.20
2018-07-04T15:53:14.662Z,65.10
2018-07-04T15:53:59.572Z,65.00
2018-07-04T15:54:45.288Z,64.90
2018-07-04T15:55:30.346Z,64.90
2018-07-04T15:56:16.886Z,64.00
2018-07-04T15:57:08.559Z,64.80
2018-07-04T15:57:53.950Z,64.00
2018-07-04T15:58:41.294Z,64.90
2018-07-04T15:59:27.785Z,64.90
2018-07-04T16:00:12.657Z,64.90
2018-07-04T16:01:02.374Z,64.90
2018-07-04T16:01:47.995Z,65.10
2018-07-04T16:02:33.185Z,65.00
2018-07-04T16:03:18.792Z,65.00
2018-07-04T16:04:07.264Z,65.20
2018-07-04T16:04:52.278Z,65.20
2018-07-04T16:05:37.864Z,65.20
2018-07-04T16:06:22.806Z,65.20
2018-07-04T16:07:09.183Z,65.30
2018-07-04T16:07:54.042Z,65.40
2018-07-04T16:08:41.034Z,65.40
2018-07-04T16:09:26.839Z,66.20
2018-07-04T16:10:11.782Z,65.90
2018-07-04T16:11:00.305Z,65.90
2018-07-04T16:11:45.089Z,65.90
2018-07-04T16:12:30.051Z,65.90
2018-07-04T16:13:14.866Z,65.90
2018-07-04T16:13:59.798Z,66.10
2018-07-04T16:14:45.789Z,66.10
2018-07-04T16:15:33.058Z,66.10
2018-07-04T16:16:26.957Z,66.50
2018-07-04T16:17:25.556Z,66.40
2018-07-04T16:20:03.598Z,66.30
2018-07-04T16:21:54.354Z,66.50
2018-07-04T16:22:41.257Z,66.70
2018-07-04T16:24:25.759Z,67.70
2018-07-04T16:25:14.919Z,66.60
2018-07-04T16:26:03.751Z,66.60
2018-07-04T16:26:54.448Z,66.30
2018-07-04T16:27:39.519Z,66.40
2018-07-04T16:28:24.541Z,66.50
2018-07-04T16:29:10.629Z,66.40
2018-07-04T16:29:56.352Z,66.60
2018-07-04T16:30:45.077Z,66.50
2018-07-04T16:31:30.867Z,66.40
2018-07-04T16:32:15.718Z,66.30
2018-07-04T16:33:04.235Z,66.90
2018-07-04T16:33:49.027Z,68.50
2018-07-04T16:34:34.116Z,67.80
2018-07-04T16:35:20.949Z,67.80
2018-07-04T16:36:07.366Z,67.90
2018-07-04T16:36:53.248Z,67.80
2018-07-04T16:37:38.292Z,68.00
2018-07-04T16:38:35.011Z,67.90
2018-07-04T16:39:20.914Z,68.40
2018-07-04T16:40:05.933Z,68.30
2018-07-04T16:40:51.730Z,68.20
2018-07-04T16:41:37.950Z,68.20
2018-07-04T16:42:26.851Z,68.20
2018-07-04T16:43:13.269Z,68.00
2018-07-04T16:43:58.251Z,68.10
2018-07-04T16:44:43.410Z,68.40
2018-07-04T16:45:28.354Z,68.00
2018-07-04T16:46:13.386Z,68.00
2018-07-04T16:46:58.352Z,67.90
2018-07-04T16:47:43.282Z,67.90
2018-07-04T16:48:28.417Z,67.90
2018-07-04T16:49:14.117Z,68.00
2018-07-04T16:49:59.144Z,68.00
2018-07-04T16:50:44.200Z,67.90
2018-07-04T16:51:29.907Z,67.90
2018-07-04T16:52:14.813Z,67.90
2018-07-04T16:53:01.524Z,67.90
2018-07-04T16:53:48.560Z,67.90
2018-07-04T16:54:33.578Z,67.80
2018-07-04T16:55:19.146Z,67.40
2018-07-04T16:56:04.286Z,67.40
2018-07-04T16:56:50.373Z,67.10
2018-07-04T16:57:38.452Z,67.30
2018-07-04T16:58:24.458Z,67.20
2018-07-04T16:59:10.399Z,66.70
2018-07-04T16:59:55.174Z,66.80
2018-07-04T17:00:40.081Z,66.40
2018-07-04T17:01:24.997Z,66.30
2018-07-04T17:02:09.882Z,66.10
2018-07-04T17:02:54.963Z,66.00
2018-07-04T17:03:39.727Z,66.10
2018-07-04T17:04:24.770Z,65.70
2018-07-04T17:05:10.621Z,65.60
2018-07-04T17:05:55.640Z,65.50
2018-07-04T17:06:40.450Z,65.50
2018-07-04T17:07:26.105Z,65.80
2018-07-04T17:08:11.239Z,65.80
2018-07-04T17:08:57.002Z,66.10
2018-07-04T17:09:42.704Z,66.20
2018-07-04T17:10:27.719Z,66.10
2018-07-04T17:11:12.795Z,66.10
2018-07-04T17:11:58.481Z,66.60
2018-07-04T17:12:43.437Z,66.60
2018-07-04T17:13:28.327Z,66.70
2018-07-04T17:14:13.462Z,66.90
2018-07-04T17:14:58.515Z,66.90
2018-07-04T17:15:43.805Z,67.10
2018-07-04T17:16:29.607Z,67.30
2018-07-04T17:17:14.389Z,67.50
2018-07-04T17:17:59.395Z,67.70
2018-07-04T17:18:44.356Z,67.80
2018-07-04T17:19:32.121Z,68.00
2018-07-04T17:20:17.482Z,68.10
2018-07-04T17:21:03.656Z,68.20
2018-07-04T17:21:49.383Z,68.20
2018-07-04T17:22:34.520Z,68.20
2018-07-04T17:23:19.769Z,68.10
2018-07-04T17:24:04.674Z,68.00
2018-07-04T17:24:49.719Z,67.50
2018-07-04T17:25:34.595Z,67.90
2018-07-04T17:26:20.276Z,66.80
2018-07-04T17:27:06.913Z,66.80
2018-07-04T17:27:52.703Z,66.80
2018-07-04T17:28:42.664Z,67.20
2018-07-04T17:29:27.622Z,66.70
2018-07-04T17:30:12.468Z,66.90
2018-07-04T17:30:57.428Z,67.30
2018-07-04T17:31:42.416Z,68.10
2018-07-04T17:32:29.350Z,68.20
2018-07-04T18:30:10.905Z,68.80
2018-07-04T18:31:01.273Z,68.50
2018-07-04T18:50:47.078Z,68.40
